Bw Argon — 2JAB4 — position and weather

sailwx.info

Track history (hours):
 
Tides and Currents Weather Stations Pressure Air Temp Water Temp Dewpoint Dewpoint Depression Visibility Wind Speed Wind Dir Waves Ship Positions

Bw Argon

Last reported at 2018-May-30 00:36 UTC. Time now 2018-Jun-25 19:49 UTC.
Position N 23°20' E 065°32'.
Warning: this ship's position is 26 days out of date.

Length 147 m; draft 5.8 m.

Type: Tanker. MMSI: 235114185.

Date/timePositionNaut miles runAvg speedWind from/ knotsBaromVisibWave heightAir tempDewpointWater temp
2018-May-30 00:36N 23°20' E 065°32'110.4
2018-May-30 00:30N 23°20' E 065°33'1910.5
2018-May-29 22:43N 23°16' E 065°53'1310.1
2018-May-29 21:29N 23°14' E 066°07'510.1
2018-May-29 21:00N 23°13' E 066°12'610.2
2018-May-29 20:27N 23°12' E 066°18'510.0
2018-May-29 19:58N 23°10' E 066°23'510.1
2018-May-29 19:30N 23°09' E 066°28'5 9.8
2018-May-29 18:58N 23°08' E 066°33'5 9.7
2018-May-29 18:28N 23°07' E 066°38'4 9.5
2018-May-29 18:01N 23°06' E 066°43'5 9.7
2018-May-29 17:31N 23°05' E 066°48'510.0
2018-May-29 17:01N 23°04' E 066°54'125 2.9
2018-May-27 21:44N 22°03' E 068°52'6410.2
2018-May-27 15:29N 21°06' E 069°23'2010.3
2018-May-27 13:31N 20°49' E 069°35'010.2
2018-May-27 13:29N 20°49' E 069°35'92 9.7
2018-May-27 04:00N 20°19' E 071°08'20 9.4
2018-May-27 01:55N 20°13' E 071°28'4 9.9
2018-May-27 01:28N 20°12' E 071°32'510.5
2018-May-27 01:00N 20°10' E 071°37'610.8
2018-May-27 00:28N 20°09' E 071°43'2011.9
2018-May-26 22:48N 20°12' E 072°04'412.5
2018-May-26 22:29N 20°13' E 072°08'812.0
2018-May-26 21:47N 20°18' E 072°16'412.5
2018-May-26 21:27N 20°21' E 072°19'512.1
2018-May-26 21:00N 20°25' E 072°23'811.4
2018-May-26 20:18N 20°31' E 072°28'311.1
2018-May-26 20:00N 20°34' E 072°29'510.6
2018-May-26 19:30N 20°39' E 072°30'510.2
2018-May-26 18:59N 20°45' E 072°31'5 9.5
2018-May-26 18:30N 20°49' E 072°32'5 9.1
2018-May-26 18:00N 20°53' E 072°33'5 9.3
2018-May-26 17:30N 20°58' E 072°34'4 8.7
2018-May-26 17:00N 21°02' E 072°34'2 4.3
2018-May-26 16:30N 21°04' E 072°35'3 4.6
2018-May-26 15:56N 21°05' E 072°38'0 0.0
2018-May-26 15:26N 21°05' E 072°38'0 0.0
2018-May-26 14:56N 21°05' E 072°38'0 0.0
2018-May-26 14:26N 21°05' E 072°38'0 0.0
2018-May-26 13:56N 21°05' E 072°38'0 0.0
2018-May-26 13:26N 21°05' E 072°38'0 0.0
2018-May-26 12:56N 21°05' E 072°38'0 0.0
2018-May-26 12:26N 21°05' E 072°38'0 0.0
2018-May-26 11:56N 21°05' E 072°38'0 0.0
2018-May-26 11:26N 21°05' E 072°38'0 0.0
2018-May-26 10:56N 21°05' E 072°38'0 0.0
2018-May-26 10:26N 21°05' E 072°38'0 0.0
2018-May-26 09:56N 21°05' E 072°38'0 0.0
2018-May-26 09:26N 21°05' E 072°38'0 0.0
2018-May-26 08:50N 21°05' E 072°38'0 0.0
2018-May-26 08:20N 21°05' E 072°38'0 0.0
2018-May-26 08:00N 21°05' E 072°38'0 0.9
2018-May-26 07:30N 21°05' E 072°38'3 6.0
2018-May-26 07:00N 21°04' E 072°34'4 7.8
2018-May-26 06:30N 21°00' E 072°34'1414.5
2018-May-26 05:30N 20°46' E 072°33'8111.4
2018-May-25 22:23N 19°25' E 072°27'4 9.0
2018-May-25 21:57N 19°21' E 072°27'6 9.3
2018-May-25 21:20N 19°15' E 072°28'  
2018-May-23 14:05N 19°00' E 072°31'4 2.6
2018-May-23 12:34N 19°04' E 072°32'0 0.0
2018-May-23 12:28N 19°04' E 072°32'0 0.0
2018-May-23 11:46N 19°04' E 072°32'0 0.0
2018-May-23 11:16N 19°04' E 072°32'0 0.1
2018-May-23 10:52N 19°04' E 072°32'0 0.0
2018-May-23 04:46N 19°04' E 072°32'0 0.0
2018-May-23 04:22N 19°04' E 072°32'0 0.0
2018-May-22 20:28N 19°04' E 072°32'0 0.1
2018-May-22 19:58N 19°04' E 072°32'0 0.0
2018-May-22 19:28N 19°04' E 072°32'0 0.0
2018-May-22 18:58N 19°04' E 072°32'0 0.0
2018-May-22 18:28N 19°04' E 072°32'0 0.0
2018-May-22 06:22N 19°04' E 072°32'0 0.0
2018-May-21 19:04N 19°04' E 072°32'0 0.0
2018-May-21 16:58N 19°04' E 072°32'0 0.0
2018-May-20 17:52N 19°04' E 072°32'0 0.1
2018-May-20 17:28N 19°04' E 072°32'0 0.1
2018-May-20 16:52N 19°04' E 072°32'0 0.0
2018-May-20 06:22N 19°04' E 072°32'  
Track history (hours):
 
Tides and Currents Weather Stations Pressure Air Temp Water Temp Dewpoint Dewpoint Depression Visibility Wind Speed Wind Dir Waves Ship Positions

Bw Argon

Last reported at 2018-May-30 00:36 UTC. Time now 2018-Jun-25 19:49 UTC.
Position N 23°20' E 065°32'.
Warning: this ship's position is 26 days out of date.

Length 147 m; draft 5.8 m.

Type: Tanker. MMSI: 235114185.

Date/timePositionNaut miles runAvg speedWind from/ knotsBaromVisibWave heightAir tempDewpointWater temp
2018-May-30 00:36N 23°20' E 065°32'110.4
2018-May-30 00:30N 23°20' E 065°33'1910.5
2018-May-29 22:43N 23°16' E 065°53'1310.1
2018-May-29 21:29N 23°14' E 066°07'510.1
2018-May-29 21:00N 23°13' E 066°12'610.2
2018-May-29 20:27N 23°12' E 066°18'510.0
2018-May-29 19:58N 23°10' E 066°23'510.1
2018-May-29 19:30N 23°09' E 066°28'5 9.8
2018-May-29 18:58N 23°08' E 066°33'5 9.7
2018-May-29 18:28N 23°07' E 066°38'4 9.5
2018-May-29 18:01N 23°06' E 066°43'5 9.7
2018-May-29 17:31N 23°05' E 066°48'510.0
2018-May-29 17:01N 23°04' E 066°54'125 2.9
2018-May-27 21:44N 22°03' E 068°52'6410.2
2018-May-27 15:29N 21°06' E 069°23'2010.3
2018-May-27 13:31N 20°49' E 069°35'010.2
2018-May-27 13:29N 20°49' E 069°35'92 9.7
2018-May-27 04:00N 20°19' E 071°08'20 9.4
2018-May-27 01:55N 20°13' E 071°28'4 9.9
2018-May-27 01:28N 20°12' E 071°32'510.5
2018-May-27 01:00N 20°10' E 071°37'610.8
2018-May-27 00:28N 20°09' E 071°43'2011.9
2018-May-26 22:48N 20°12' E 072°04'412.5
2018-May-26 22:29N 20°13' E 072°08'812.0
2018-May-26 21:47N 20°18' E 072°16'412.5
2018-May-26 21:27N 20°21' E 072°19'512.1
2018-May-26 21:00N 20°25' E 072°23'811.4
2018-May-26 20:18N 20°31' E 072°28'311.1
2018-May-26 20:00N 20°34' E 072°29'510.6
2018-May-26 19:30N 20°39' E 072°30'510.2
2018-May-26 18:59N 20°45' E 072°31'5 9.5
2018-May-26 18:30N 20°49' E 072°32'5 9.1
2018-May-26 18:00N 20°53' E 072°33'5 9.3
2018-May-26 17:30N 20°58' E 072°34'4 8.7
2018-May-26 17:00N 21°02' E 072°34'2 4.3
2018-May-26 16:30N 21°04' E 072°35'3 4.6
2018-May-26 15:56N 21°05' E 072°38'0 0.0
2018-May-26 15:26N 21°05' E 072°38'0 0.0
2018-May-26 14:56N 21°05' E 072°38'0 0.0
2018-May-26 14:26N 21°05' E 072°38'0 0.0
2018-May-26 13:56N 21°05' E 072°38'0 0.0
2018-May-26 13:26N 21°05' E 072°38'0 0.0
2018-May-26 12:56N 21°05' E 072°38'0 0.0
2018-May-26 12:26N 21°05' E 072°38'0 0.0
2018-May-26 11:56N 21°05' E 072°38'0 0.0
2018-May-26 11:26N 21°05' E 072°38'0 0.0
2018-May-26 10:56N 21°05' E 072°38'0 0.0
2018-May-26 10:26N 21°05' E 072°38'0 0.0
2018-May-26 09:56N 21°05' E 072°38'0 0.0
2018-May-26 09:26N 21°05' E 072°38'0 0.0
2018-May-26 08:50N 21°05' E 072°38'0 0.0
2018-May-26 08:20N 21°05' E 072°38'0 0.0
2018-May-26 08:00N 21°05' E 072°38'0 0.9
2018-May-26 07:30N 21°05' E 072°38'3 6.0
2018-May-26 07:00N 21°04' E 072°34'4 7.8
2018-May-26 06:30N 21°00' E 072°34'1414.5
2018-May-26 05:30N 20°46' E 072°33'8111.4
2018-May-25 22:23N 19°25' E 072°27'4 9.0
2018-May-25 21:57N 19°21' E 072°27'6 9.3
2018-May-25 21:20N 19°15' E 072°28'  
2018-May-23 14:05N 19°00' E 072°31'4 2.6
2018-May-23 12:34N 19°04' E 072°32'0 0.0
2018-May-23 12:28N 19°04' E 072°32'0 0.0
2018-May-23 11:46N 19°04' E 072°32'0 0.0
2018-May-23 11:16N 19°04' E 072°32'0 0.1
2018-May-23 10:52N 19°04' E 072°32'0 0.0
2018-May-23 04:46N 19°04' E 072°32'0 0.0
2018-May-23 04:22N 19°04' E 072°32'0 0.0
2018-May-22 20:28N 19°04' E 072°32'0 0.1
2018-May-22 19:58N 19°04' E 072°32'0 0.0
2018-May-22 19:28N 19°04' E 072°32'0 0.0
2018-May-22 18:58N 19°04' E 072°32'0 0.0
2018-May-22 18:28N 19°04' E 072°32'0 0.0
2018-May-22 06:22N 19°04' E 072°32'0 0.0
2018-May-21 19:04N 19°04' E 072°32'0 0.0
2018-May-21 16:58N 19°04' E 072°32'0 0.0
2018-May-20 17:52N 19°04' E 072°32'0 0.1
2018-May-20 17:28N 19°04' E 072°32'0 0.1
2018-May-20 16:52N 19°04' E 072°32'0 0.0
2018-May-20 06:22N 19°04' E 072°32'  

Dump ship's entire track history